Time;durP1;ratioP1;P1;durP2;ratioP2;P2;SDS_P1;SDS_P2;PMS_P1;PMS_P2;Temp;Humidity;BMP_temperature;BMP_pressure;BME280_temperature;BME280_humidity;BME280_pressure;Samples;Min_cycle;Max_cycle;Signal;HPM_P1;HPM_P2
2021/04/02 00:00:56;;;;;;;;;;;;;;;;;;2053726;28;42760;-83
2021/04/02 00:02:00;;;;;;;;;;;;;;;;;;2054185;28;47004;-83
2021/04/02 00:03:09;;;;;;;;;;;;;;;;;;2053926;28;43971;-84
2021/04/02 00:04:10;;;;;;;;;;;;;;;;;;2053879;28;46603;-84
2021/04/02 00:05:14;;;;;;;;;;;;;;;;;;2053621;28;45435;-84
2021/04/02 00:06:20;;;;;;;;;;;;;;;;;;2053500;28;47716;-84
2021/04/02 00:07:23;;;;;;;;;;;;;;;;;;2054598;28;43629;-84
2021/04/02 00:08:24;;;;;;;;;;;;;;;;;;2058758;28;45053;-84
2021/04/02 00:09:26;;;;;;;;;;;;;;;;;;2060797;28;43611;-83
2021/04/02 00:10:31;;;;;;;;;;;;;;;;;;2068703;28;43911;-83
2021/04/02 00:11:34;;;;;;;;;;;;;;;;;;2068253;28;43416;-83
2021/04/02 00:12:36;;;;;;;;;;;;;;;;;;2060551;28;43784;-82
2021/04/02 00:13:45;;;;;;;;;;;;;;;;;;2060326;28;44220;-83
2021/04/02 00:14:47;;;;;;;;;;;;;;;;;;2061319;28;45033;-82
2021/04/02 00:15:50;;;;;;;;;;;;;;;;;;2068190;28;43130;-83
2021/04/02 00:16:51;;;;;;;;;;;;;;;;;;2061046;28;44780;-82
2021/04/02 00:17:53;;;;;;;;;;;;;;;;;;2068692;28;45860;-83
2021/04/02 00:18:54;;;;;;;;;;;;;;;;;;2068704;28;44338;-82
2021/04/02 00:19:56;;;;;;;;;;;;;;;;;;2069031;28;45780;-83
2021/04/02 00:20:58;;;;;;;;;;;;;;;;;;2069393;28;45217;-82
2021/04/02 00:22:02;;;;;;;;;;;;;;;;;;2069822;28;45095;-81
2021/04/02 00:23:06;;;;;;;;;;;;;;;;;;2069536;28;44660;-83
2021/04/02 00:24:07;;;;;;;;;;;;;;;;;;2069706;28;42936;-83
2021/04/02 00:25:13;;;;;;;;;;;;;;;;;;2071206;28;43632;-82
2021/04/02 00:26:16;;;;;;;;;;;;;;;;;;2072012;28;43469;-84
2021/04/02 00:27:17;;;;;;;;;;;;;;;;;;2072172;28;44426;-81
2021/04/02 00:28:18;;;;;;;;;;;;;;;;;;2071481;28;44454;-84
2021/04/02 00:29:19;;;;;;;;;;;;;;;;;;2071308;28;45379;-83
2021/04/02 00:30:23;;;;;;;;;;;;;;;;;;2060774;28;44071;-84
2021/04/02 00:31:25;;;;;;;;;;;;;;;;;;2066585;28;43366;-85
2021/04/02 00:32:29;;;;;;;;;;;;;;;;;;2066114;28;44164;-84
2021/04/02 00:33:32;;;;;;;;;;;;;;;;;;2067966;28;46660;-84
2021/04/02 00:34:33;;;;;;;;;;;;;;;;;;2067140;28;45833;-82
2021/04/02 00:35:34;;;;;;;;;;;;;;;;;;2068363;28;43354;-84
2021/04/02 00:36:35;;;;;;;;;;;;;;;;;;2068253;28;44595;-83
2021/04/02 00:37:36;;;;;;;;;;;;;;;;;;2069756;28;42978;-83
2021/04/02 00:38:38;;;;;;;;;;;;;;;;;;2059495;28;44523;-84
2021/04/02 00:39:39;;;;;;;;;;;;;;;;;;2067555;28;48077;-84
2021/04/02 00:40:42;;;;;;;;;;;;;;;;;;2075976;28;44858;-82
2021/04/02 00:41:43;;;;;;;;;;;;;;;;;;2074440;28;43744;-82
2021/04/02 00:42:45;;;;;;;;;;;;;;;;;;2076352;28;42648;-85
2021/04/02 00:43:47;;;;;;;;;;;;;;;;;;2075601;28;45915;-85
2021/04/02 00:44:49;;;;;;;;;;;;;;;;;;2074996;28;43328;-85
2021/04/02 00:45:53;;;;;;;;;;;;;;;;;;2067709;28;44607;-85
2021/04/02 00:46:54;;;;;;;;;;;;;;;;;;2075273;28;48884;-84
2021/04/02 00:47:56;;;;;;;;;;;;;;;;;;2067155;28;46015;-86
2021/04/02 00:49:00;;;;;;;;;;;;;;;;;;2067353;28;43861;-85
2021/04/02 00:50:04;;;;;;;;;;;;;;;;;;2067121;28;46752;-86
2021/04/02 00:51:10;;;;;;;;;;;;;;;;;;2073836;28;44554;-84
2021/04/02 00:52:12;;;;;;;;;;;;;;;;;;2073985;28;45992;-84
2021/04/02 00:53:13;;;;;;;;;;;;;;;;;;2067837;28;44202;-84
2021/04/02 00:54:14;;;;;;;;;;;;;;;;;;2075022;28;46682;-86
2021/04/02 00:55:17;;;;;;;;;;;;;;;;;;2074911;28;43959;-84
2021/04/02 00:56:19;;;;;;;;;;;;;;;;;;2067152;28;45854;-83
2021/04/02 00:57:20;;;;;;;;;;;;;;;;;;2075312;28;44569;-83
2021/04/02 00:58:22;;;;;;;;;;;;;;;;;;2075151;28;46597;-86
2021/04/02 00:59:24;;;;;;;;;;;;;;;;;;2075413;28;46207;-87
2021/04/02 01:00:26;;;;;;;;;;;;;;;;;;2074850;28;49436;-84
2021/04/02 01:01:28;;;;;;;;;;;;;;;;;;2074470;28;47218;-85
2021/04/02 01:02:29;;;;;;;;;;;;;;;;;;2067637;28;43635;-84
2021/04/02 01:03:31;;;;;;;;;;;;;;;;;;2059463;28;44119;-84
2021/04/02 01:04:33;;;;;;;;;;;;;;;;;;2067643;28;47234;-84
2021/04/02 01:05:38;;;;;;;;;;;;;;;;;;2078129;28;42986;-82
2021/04/02 01:06:41;;;;;;;;;;;;;;;;;;2078635;28;47349;-83
2021/04/02 01:07:45;;;;;;;;;;;;;;;;;;2071077;28;44335;-82
2021/04/02 01:08:47;;;;;;;;;;;;;;;;;;2063620;28;44508;-80
2021/04/02 01:09:48;;;;;;;;;;;;;;;;;;2071764;28;46933;-82
2021/04/02 01:10:53;;;;;;;;;;;;;;;;;;2079899;28;46075;-83
2021/04/02 01:11:54;;;;;;;;;;;;;;;;;;2079586;28;45041;-83
2021/04/02 01:12:57;;;;;;;;;;;;;;;;;;2079810;28;43193;-83
2021/04/02 01:13:58;;;;;;;;;;;;;;;;;;2079346;28;43596;-83
2021/04/02 01:15:00;;;;;;;;;;;;;;;;;;2071741;28;42627;-81
2021/04/02 01:16:04;;;;;;;;;;;;;;;;;;2071606;28;44115;-84
2021/04/02 01:17:06;;;;;;;;;;;;;;;;;;2080367;28;44075;-83
2021/04/02 01:18:21;;;;;;;;;;;;;;;;;;2080090;28;43821;-84
2021/04/02 01:19:25;;;;;;;;;;;;;;;;;;2079280;28;46510;-84
2021/04/02 01:20:30;;;;;;;;;;;;;;;;;;2079604;28;44522;-83
2021/04/02 01:21:42;;;;;;;;;;;;;;;;;;2071877;28;44574;-84
2021/04/02 01:22:44;;;;;;;;;;;;;;;;;;2072877;28;42575;-84
2021/04/02 01:24:04;;;;;;;;;;;;;;;;;;2073843;28;43717;-84
2021/04/02 01:25:25;;;;;;;;;;;;;;;;;;2082880;28;46314;-81
2021/04/02 01:26:55;;;;;;;;;;;;;;;;;;2082249;28;44977;-85
2021/04/02 01:28:07;;;;;;;;;;;;;;;;;;2081743;28;44126;-84
2021/04/02 01:29:09;;;;;;;;;;;;;;;;;;2081167;28;45562;-85
2021/04/02 01:30:12;;;;;;;;;;;;;;;;;;2081822;28;47420;-84
2021/04/02 01:31:14;;;;;;;;;;;;;;;;;;2081521;28;43978;-84
2021/04/02 01:32:20;;;;;;;;;;;;;;;;;;2080717;28;43741;-84
2021/04/02 01:33:23;;;;;;;;;;;;;;;;;;2072702;28;48021;-83
2021/04/02 01:34:28;;;;;;;;;;;;;;;;;;2065478;28;44594;-83
2021/04/02 01:35:34;;;;;;;;;;;;;;;;;;2074191;28;46084;-82
2021/04/02 01:36:38;;;;;;;;;;;;;;;;;;2081907;28;44710;-84
2021/04/02 01:37:50;;;;;;;;;;;;;;;;;;2081699;28;46388;-82
2021/04/02 01:38:52;;;;;;;;;;;;;;;;;;2065067;28;42762;-82
2021/04/02 01:39:57;;;;;;;;;;;;;;;;;;2056975;28;48869;-83
2021/04/02 01:41:04;;;;;;;;;;;;;;;;;;2058024;28;44105;-83
2021/04/02 01:42:07;;;;;;;;;;;;;;;;;;2066243;28;44483;-85
2021/04/02 01:43:28;;;;;;;;;;;;;;;;;;2130339;27;14212;-61
2021/04/02 01:44:31;;;;;;;;;;;;;;;;;;2130545;27;42854;-61
2021/04/02 01:45:32;;;;;;;;;;;;;;;;;;2129484;27;45079;-61
2021/04/02 01:46:34;;;;;;;;;;;;;;;;;;2129945;27;45107;-61
2021/04/02 01:47:35;;;;;;;;;;;;;;;;;;2130350;27;44120;-61
2021/04/02 01:48:42;;;;;;;;;;;;;;;;;;2130490;27;45288;-61
2021/04/02 01:49:44;;;;;;;;;;;;;;;;;;2129899;27;43950;-61
2021/04/02 01:50:46;;;;;;;;;;;;;;;;;;2121436;27;44161;-61
2021/04/02 01:51:48;;;;;;;;;;;;;;;;;;2129472;27;43727;-61
2021/04/02 01:52:50;;;;;;;;;;;;;;;;;;2130511;27;44382;-61
2021/04/02 01:53:53;;;;;;;;;;;;;;;;;;2129637;27;43006;-61
2021/04/02 01:54:54;;;;;;;;;;;;;;;;;;2129926;27;44056;-61
2021/04/02 01:55:55;;;;;;;;;;;;;;;;;;2129975;27;42790;-61
2021/04/02 01:56:56;;;;;;;;;;;;;;;;;;2130417;27;44013;-61
2021/04/02 01:57:57;;;;;;;;;;;;;;;;;;2130087;27;45392;-61
2021/04/02 01:58:59;;;;;;;;;;;;;;;;;;2129802;27;44079;-62
2021/04/02 02:00:00;;;;;;;;;;;;;;;;;;2129552;27;45397;-62
2021/04/02 02:01:02;;;;;;;;;;;;;;;;;;2130481;27;43751;-61
2021/04/02 02:02:03;;;;;;;;;;;;;;;;;;2129448;27;44042;-62
2021/04/02 02:03:05;;;;;;;;;;;;;;;;;;2121219;27;42843;-62
2021/04/02 02:04:06;;;;;;;;;;;;;;;;;;2121011;27;42668;-63
2021/04/02 02:05:08;;;;;;;;;;;;;;;;;;2130243;27;45257;-62
2021/04/02 02:06:11;;;;;;;;;;;;;;;;;;2129363;27;45090;-62
2021/04/02 02:07:13;;;;;;;;;;;;;;;;;;2121534;27;46622;-62
2021/04/02 02:08:15;;;;;;;;;;;;;;;;;;2123951;27;45267;-63
2021/04/02 02:09:17;;;;;;;;;;;;;;;;;;2121831;27;46493;-62
2021/04/02 02:10:21;;;;;;;;;;;;;;;;;;2120874;27;45389;-63
2021/04/02 02:11:24;;;;;;;;;;;;;;;;;;2121040;27;45383;-63
2021/04/02 02:12:25;;;;;;;;;;;;;;;;;;2120973;27;46645;-62
2021/04/02 02:13:28;;;;;;;;;;;;;;;;;;2120737;27;46356;-64
2021/04/02 02:14:30;;;;;;;;;;;;;;;;;;2120516;27;45465;-62
2021/04/02 02:15:31;;;;;;;;;;;;;;;;;;2120549;27;45493;-62
2021/04/02 02:16:33;;;;;;;;;;;;;;;;;;2120944;27;46505;-62
2021/04/02 02:17:34;;;;;;;;;;;;;;;;;;2121163;27;45189;-62
2021/04/02 02:18:36;;;;;;;;;;;;;;;;;;2121573;27;44137;-62
2021/04/02 02:19:38;;;;;;;;;;;;;;;;;;2121118;27;46576;-62
2021/04/02 02:20:40;;;;;;;;;;;;;;;;;;2120845;27;45193;-62
2021/04/02 02:21:42;;;;;;;;;;;;;;;;;;2120953;27;45365;-62
2021/04/02 02:22:43;;;;;;;;;;;;;;;;;;2112666;27;44002;-62
2021/04/02 02:23:44;;;;;;;;;;;;;;;;;;2121140;27;45298;-62
2021/04/02 02:24:45;;;;;;;;;;;;;;;;;;2121144;27;42837;-62
2021/04/02 02:25:46;;;;;;;;;;;;;;;;;;2121215;27;45408;-62
2021/04/02 02:26:47;;;;;;;;;;;;;;;;;;2121414;27;46626;-62
2021/04/02 02:27:48;;;;;;;;;;;;;;;;;;2121102;27;46990;-62
2021/04/02 02:28:49;;;;;;;;;;;;;;;;;;2121186;27;46835;-62
2021/04/02 02:29:50;;;;;;;;;;;;;;;;;;2121426;27;44082;-63
2021/04/02 02:30:52;;;;;;;;;;;;;;;;;;2120968;27;47006;-63
2021/04/02 02:31:52;;;;;;;;;;;;;;;;;;2120746;27;44319;-63
2021/04/02 02:32:54;;;;;;;;;;;;;;;;;;2121000;27;45883;-63
2021/04/02 02:33:55;;;;;;;;;;;;;;;;;;2112555;27;45600;-63
2021/04/02 02:34:56;;;;;;;;;;;;;;;;;;2112579;27;44912;-63
2021/04/02 02:35:59;;;;;;;;;;;;;;;;;;2120587;27;46808;-63
2021/04/02 02:37:01;;;;;;;;;;;;;;;;;;2121183;27;45825;-63
2021/04/02 02:38:02;;;;;;;;;;;;;;;;;;2112692;27;45714;-63
2021/04/02 02:39:08;;;;;;;;;;;;;;;;;;2121291;27;45704;-63
2021/04/02 02:40:21;;;;;;;;;;;;;;;;;;2121062;27;46099;-63
2021/04/02 02:41:26;;;;;;;;;;;;;;;;;;2121489;27;44369;-63
2021/04/02 02:42:27;;;;;;;;;;;;;;;;;;2121361;27;45799;-62
2021/04/02 02:43:29;;;;;;;;;;;;;;;;;;2120730;27;45881;-63
2021/04/02 02:44:30;;;;;;;;;;;;;;;;;;2120922;27;47095;-63
2021/04/02 02:45:33;;;;;;;;;;;;;;;;;;2120601;27;46908;-63
2021/04/02 02:46:34;;;;;;;;;;;;;;;;;;2120952;27;47008;-63
2021/04/02 02:47:35;;;;;;;;;;;;;;;;;;2120864;27;46771;-64
2021/04/02 02:48:36;;;;;;;;;;;;;;;;;;2120981;27;45784;-63
2021/04/02 02:49:39;;;;;;;;;;;;;;;;;;2121783;27;45807;-63
2021/04/02 02:50:43;;;;;;;;;;;;;;;;;;2121548;27;42821;-63
2021/04/02 02:51:46;;;;;;;;;;;;;;;;;;2120766;27;42842;-64
2021/04/02 02:52:47;;;;;;;;;;;;;;;;;;2120888;27;42704;-64
2021/04/02 02:53:49;;;;;;;;;;;;;;;;;;2121445;27;43955;-63
2021/04/02 02:54:51;;;;;;;;;;;;;;;;;;2115273;27;44416;-64
2021/04/02 02:55:53;;;;;;;;;;;;;;;;;;2115402;27;44787;-64
2021/04/02 02:56:55;;;;;;;;;;;;;;;;;;2115959;27;44069;-65
2021/04/02 02:57:56;;;;;;;;;;;;;;;;;;2115357;28;44080;-64
2021/04/02 02:58:58;;;;;;;;;;;;;;;;;;2115280;28;44102;-63
2021/04/02 03:00:00;;;;;;;;;;;;;;;;;;2115162;28;44833;-63
2021/04/02 03:01:01;;;;;;;;;;;;;;;;;;2115124;28;45255;-62
2021/04/02 03:02:03;;;;;;;;;;;;;;;;;;2115304;28;43289;-62
2021/04/02 03:03:07;;;;;;;;;;;;;;;;;;2114889;28;43901;-62
2021/04/02 03:04:09;;;;;;;;;;;;;;;;;;2115225;28;45061;-63
2021/04/02 03:05:11;;;;;;;;;;;;;;;;;;2115787;27;42575;-62
2021/04/02 03:06:12;;;;;;;;;;;;;;;;;;2114861;28;45065;-63
2021/04/02 03:07:14;;;;;;;;;;;;;;;;;;2114994;28;43897;-63
2021/04/02 03:08:17;;;;;;;;;;;;;;;;;;2115097;27;45414;-63
2021/04/02 03:09:18;;;;;;;;;;;;;;;;;;2114913;28;44352;-62
2021/04/02 03:10:19;;;;;;;;;;;;;;;;;;2115057;28;45318;-62
2021/04/02 03:11:21;;;;;;;;;;;;;;;;;;2115281;28;43979;-62
2021/04/02 03:12:23;;;;;;;;;;;;;;;;;;2115054;28;45379;-62
2021/04/02 03:13:24;;;;;;;;;;;;;;;;;;2114928;28;45411;-63
2021/04/02 03:14:26;;;;;;;;;;;;;;;;;;2115189;28;43898;-62
2021/04/02 03:15:27;;;;;;;;;;;;;;;;;;2114739;28;45332;-61
2021/04/02 03:16:29;;;;;;;;;;;;;;;;;;2115060;28;45367;-62
2021/04/02 03:17:31;;;;;;;;;;;;;;;;;;2106530;28;46364;-62
2021/04/02 03:18:32;;;;;;;;;;;;;;;;;;2115161;28;43962;-61
2021/04/02 03:19:33;;;;;;;;;;;;;;;;;;2114966;27;45484;-61
2021/04/02 03:20:35;;;;;;;;;;;;;;;;;;2115109;28;46577;-61
2021/04/02 03:21:36;;;;;;;;;;;;;;;;;;2114601;28;46902;-62
2021/04/02 03:22:37;;;;;;;;;;;;;;;;;;2106670;28;46453;-62
2021/04/02 03:23:43;;;;;;;;;;;;;;;;;;2114797;28;44500;-62
2021/04/02 03:24:46;;;;;;;;;;;;;;;;;;2115135;28;46591;-62
2021/04/02 03:25:48;;;;;;;;;;;;;;;;;;2115065;28;45400;-62
2021/04/02 03:26:52;;;;;;;;;;;;;;;;;;2114980;28;43920;-62
2021/04/02 03:27:54;;;;;;;;;;;;;;;;;;2114809;28;44115;-62
2021/04/02 03:28:56;;;;;;;;;;;;;;;;;;2115037;28;43975;-62
2021/04/02 03:29:57;;;;;;;;;;;;;;;;;;2115379;27;46596;-62
2021/04/02 03:30:58;;;;;;;;;;;;;;;;;;2115653;27;45642;-62
2021/04/02 03:32:02;;;;;;;;;;;;;;;;;;2114575;28;46380;-63
2021/04/02 03:33:08;;;;;;;;;;;;;;;;;;2115394;28;46471;-63
2021/04/02 03:34:12;;;;;;;;;;;;;;;;;;2114792;28;46049;-62
2021/04/02 03:35:13;;;;;;;;;;;;;;;;;;2115014;28;45870;-63
2021/04/02 03:36:14;;;;;;;;;;;;;;;;;;2114565;28;45688;-62
2021/04/02 03:37:16;;;;;;;;;;;;;;;;;;2106703;28;44409;-62
2021/04/02 03:38:17;;;;;;;;;;;;;;;;;;2107663;28;47082;-63
2021/04/02 03:39:22;;;;;;;;;;;;;;;;;;2118390;28;43161;-63
2021/04/02 03:40:31;;;;;;;;;;;;;;;;;;2116132;27;44499;-63
2021/04/02 03:41:33;;;;;;;;;;;;;;;;;;2107225;28;46950;-63
2021/04/02 03:42:35;;;;;;;;;;;;;;;;;;2114754;28;44716;-63
2021/04/02 03:43:37;;;;;;;;;;;;;;;;;;2108129;28;47314;-64
2021/04/02 03:44:40;;;;;;;;;;;;;;;;;;2106482;28;45826;-62
2021/04/02 03:45:42;;;;;;;;;;;;;;;;;;2114734;28;45546;-62
2021/04/02 03:46:43;;;;;;;;;;;;;;;;;;2115288;27;46673;-62
2021/04/02 03:47:47;;;;;;;;;;;;;;;;;;2115485;27;47245;-63
2021/04/02 03:48:49;;;;;;;;;;;;;;;;;;2114722;28;45727;-62
2021/04/02 03:49:51;;;;;;;;;;;;;;;;;;2115158;28;44462;-62
2021/04/02 03:50:56;;;;;;;;;;;;;;;;;;2115380;27;46032;-63
2021/04/02 03:51:58;;;;;;;;;;;;;;;;;;2115589;27;44189;-62
2021/04/02 03:53:08;;;;;;;;;;;;;;;;;;2115270;27;45605;-63
2021/04/02 03:54:11;;;;;;;;;;;;;;;;;;2114742;28;45781;-62
2021/04/02 03:55:14;;;;;;;;;;;;;;;;;;2114809;28;45738;-62
2021/04/02 03:56:16;;;;;;;;;;;;;;;;;;2114947;28;45832;-62
2021/04/02 03:57:19;;;;;;;;;;;;;;;;;;2114770;28;44406;-62
2021/04/02 03:58:20;;;;;;;;;;;;;;;;;;2114852;28;44180;-62
2021/04/02 03:59:22;;;;;;;;;;;;;;;;;;2106466;28;44271;-62
2021/04/02 04:00:33;;;;;;;;;;;;;;;;;;2114740;28;45230;-62
2021/04/02 04:01:37;;;;;;;;;;;;;;;;;;2115257;27;44169;-62
2021/04/02 04:02:38;;;;;;;;;;;;;;;;;;2114691;28;45821;-62
2021/04/02 04:03:40;;;;;;;;;;;;;;;;;;2114727;28;45176;-62
2021/04/02 04:04:44;;;;;;;;;;;;;;;;;;2114595;28;42814;-62
2021/04/02 04:05:46;;;;;;;;;;;;;;;;;;2114189;27;44432;-62
2021/04/02 04:06:47;;;;;;;;;;;;;;;;;;2114120;28;43812;-62
2021/04/02 04:07:49;;;;;;;;;;;;;;;;;;2114652;27;43703;-62
2021/04/02 04:08:52;;;;;;;;;;;;;;;;;;2114573;27;44349;-61
2021/04/02 04:09:54;;;;;;;;;;;;;;;;;;2115355;27;45232;-62
2021/04/02 04:10:57;;;;;;;;;;;;;;;;;;2114683;28;44094;-62
2021/04/02 04:12:00;;;;;;;;;;;;;;;;;;2114466;28;45677;-62
2021/04/02 04:13:03;;;;;;;;;;;;;;;;;;2106489;28;44077;-63
2021/04/02 04:14:05;;;;;;;;;;;;;;;;;;2106589;28;42856;-63
2021/04/02 04:15:06;;;;;;;;;;;;;;;;;;2114662;28;44125;-63
2021/04/02 04:16:07;;;;;;;;;;;;;;;;;;2114361;28;42856;-63
2021/04/02 04:17:11;;;;;;;;;;;;;;;;;;2114662;28;45449;-64
2021/04/02 04:18:13;;;;;;;;;;;;;;;;;;2115005;28;44128;-63
2021/04/02 04:19:19;;;;;;;;;;;;;;;;;;2114749;28;46351;-64
2021/04/02 04:20:21;;;;;;;;;;;;;;;;;;2114619;28;46616;-64
2021/04/02 04:21:24;;;;;;;;;;;;;;;;;;2115199;27;45719;-65
2021/04/02 04:22:26;;;;;;;;;;;;;;;;;;2114715;28;46687;-62
2021/04/02 04:23:27;;;;;;;;;;;;;;;;;;2114605;28;45390;-62
2021/04/02 04:24:29;;;;;;;;;;;;;;;;;;2115229;27;45550;-62
2021/04/02 04:25:31;;;;;;;;;;;;;;;;;;2114545;28;44235;-62
2021/04/02 04:26:32;;;;;;;;;;;;;;;;;;2114642;28;45633;-62
2021/04/02 04:27:34;;;;;;;;;;;;;;;;;;2114952;28;43589;-62
2021/04/02 04:28:36;;;;;;;;;;;;;;;;;;2114495;28;44124;-62
2021/04/02 04:29:40;;;;;;;;;;;;;;;;;;2114638;28;45464;-63
2021/04/02 04:30:44;;;;;;;;;;;;;;;;;;2114673;28;45378;-62
2021/04/02 04:31:46;;;;;;;;;;;;;;;;;;2114215;28;45388;-62
2021/04/02 04:32:47;;;;;;;;;;;;;;;;;;2114717;28;46685;-62
2021/04/02 04:33:50;;;;;;;;;;;;;;;;;;2114501;28;44284;-62
2021/04/02 04:34:51;;;;;;;;;;;;;;;;;;2106670;28;44112;-62
2021/04/02 04:35:53;;;;;;;;;;;;;;;;;;2105967;28;45048;-64
2021/04/02 04:36:55;;;;;;;;;;;;;;;;;;2106425;28;45190;-63
2021/04/02 04:37:57;;;;;;;;;;;;;;;;;;2106130;28;45255;-63
2021/04/02 04:38:59;;;;;;;;;;;;;;;;;;2114524;28;46373;-63
2021/04/02 04:40:01;;;;;;;;;;;;;;;;;;2115594;27;45142;-63
2021/04/02 04:41:02;;;;;;;;;;;;;;;;;;2114343;28;45623;-64
2021/04/02 04:42:04;;;;;;;;;;;;;;;;;;2114636;28;45585;-63
2021/04/02 04:43:07;;;;;;;;;;;;;;;;;;2114255;28;45846;-63
2021/04/02 04:44:09;;;;;;;;;;;;;;;;;;2115332;27;45574;-64
2021/04/02 04:45:11;;;;;;;;;;;;;;;;;;2114412;28;45609;-64
2021/04/02 04:46:12;;;;;;;;;;;;;;;;;;2114326;28;45806;-64
2021/04/02 04:47:13;;;;;;;;;;;;;;;;;;2114322;28;46267;-64
2021/04/02 04:48:14;;;;;;;;;;;;;;;;;;2114554;28;44590;-64
2021/04/02 04:49:15;;;;;;;;;;;;;;;;;;2114366;28;45590;-64
2021/04/02 04:50:16;;;;;;;;;;;;;;;;;;2106010;28;47253;-63
2021/04/02 04:51:18;;;;;;;;;;;;;;;;;;2114404;28;46769;-64
2021/04/02 04:52:20;;;;;;;;;;;;;;;;;;2114181;28;46937;-64
2021/04/02 04:53:24;;;;;;;;;;;;;;;;;;2114321;28;47185;-62
2021/04/02 04:54:26;;;;;;;;;;;;;;;;;;2114431;28;47188;-63
2021/04/02 04:55:28;;;;;;;;;;;;;;;;;;2113986;28;46204;-62
2021/04/02 04:56:29;;;;;;;;;;;;;;;;;;2114854;28;45864;-63
2021/04/02 04:57:33;;;;;;;;;;;;;;;;;;2114186;28;45715;-63
2021/04/02 04:58:38;;;;;;;;;;;;;;;;;;2106378;28;45837;-62
2021/04/02 04:59:40;;;;;;;;;;;;;;;;;;2106385;28;46618;-62
2021/04/02 05:00:42;;;;;;;;;;;;;;;;;;2114345;28;47358;-62
2021/04/02 05:01:44;;;;;;;;;;;;;;;;;;2113976;28;46811;-63
2021/04/02 05:02:46;;;;;;;;;;;;;;;;;;2114796;28;45639;-63
2021/04/02 05:03:47;;;;;;;;;;;;;;;;;;2114067;28;42308;-63
2021/04/02 05:04:49;;;;;;;;;;;;;;;;;;2106002;28;45206;-63
2021/04/02 05:05:53;;;;;;;;;;;;;;;;;;2114273;28;45170;-63
2021/04/02 05:07:00;;;;;;;;;;;;;;;;;;2114856;27;42516;-62
2021/04/02 05:08:03;;;;;;;;;;;;;;;;;;2114419;27;42726;-62
2021/04/02 05:09:04;;;;;;;;;;;;;;;;;;2115157;27;44149;-62
2021/04/02 05:10:05;;;;;;;;;;;;;;;;;;2114392;28;42611;-62
2021/04/02 05:11:09;;;;;;;;;;;;;;;;;;2114408;28;44458;-62
2021/04/02 05:12:12;;;;;;;;;;;;;;;;;;2114155;28;45250;-63
2021/04/02 05:13:14;;;;;;;;;;;;;;;;;;2114417;27;45303;-62
2021/04/02 05:14:18;;;;;;;;;;;;;;;;;;2105877;28;43413;-62
2021/04/02 05:15:20;;;;;;;;;;;;;;;;;;2114388;28;45465;-62
2021/04/02 05:16:23;;;;;;;;;;;;;;;;;;2114153;27;43117;-62
2021/04/02 05:17:25;;;;;;;;;;;;;;;;;;2106032;28;45372;-62
2021/04/02 05:18:27;;;;;;;;;;;;;;;;;;2114122;28;45546;-63
2021/04/02 05:19:28;;;;;;;;;;;;;;;;;;2114288;28;45285;-62
2021/04/02 05:20:39;;;;;;;;;;;;;;;;;;2105854;28;42894;-61
2021/04/02 05:21:42;;;;;;;;;;;;;;;;;;2114093;28;45685;-62
2021/04/02 05:22:43;;;;;;;;;;;;;;;;;;2114074;27;45229;-62
2021/04/02 05:23:45;;;;;;;;;;;;;;;;;;2114961;27;43953;-62
2021/04/02 05:24:45;;;;;;;;;;;;;;;;;;2114586;28;44091;-62
2021/04/02 05:25:46;;;;;;;;;;;;;;;;;;2105522;28;47072;-62
2021/04/02 05:26:47;;;;;;;;;;;;;;;;;;2105972;28;46489;-62
2021/04/02 05:27:48;;;;;;;;;;;;;;;;;;2114192;28;46126;-62
2021/04/02 05:28:49;;;;;;;;;;;;;;;;;;2114125;28;45173;-62
2021/04/02 05:29:54;;;;;;;;;;;;;;;;;;2114163;28;46586;-62
2021/04/02 05:30:55;;;;;;;;;;;;;;;;;;2114375;28;42621;-62
2021/04/02 05:31:56;;;;;;;;;;;;;;;;;;2114252;28;43501;-64
2021/04/02 05:32:57;;;;;;;;;;;;;;;;;;2114251;28;46487;-63
2021/04/02 05:33:58;;;;;;;;;;;;;;;;;;2114980;27;46922;-62
2021/04/02 05:34:59;;;;;;;;;;;;;;;;;;2114203;27;44200;-62
2021/04/02 05:36:00;;;;;;;;;;;;;;;;;;2113944;28;45849;-63
2021/04/02 05:37:01;;;;;;;;;;;;;;;;;;2114584;27;46720;-63
2021/04/02 05:38:02;;;;;;;;;;;;;;;;;;2114071;27;45418;-63
2021/04/02 05:39:04;;;;;;;;;;;;;;;;;;2113920;27;46846;-63
2021/04/02 05:40:05;;;;;;;;;;;;;;;;;;2114080;28;46772;-63
2021/04/02 05:41:07;;;;;;;;;;;;;;;;;;2114505;27;46568;-63
2021/04/02 05:42:09;;;;;;;;;;;;;;;;;;2113952;28;46496;-62
2021/04/02 05:43:31;;;;;;;;;;;;;;;;;;2113821;28;45783;-61
2021/04/02 05:44:33;;;;;;;;;;;;;;;;;;2114092;28;45225;-61
2021/04/02 05:45:36;;;;;;;;;;;;;;;;;;2113808;28;45386;-61
2021/04/02 05:46:40;;;;;;;;;;;;;;;;;;2106452;28;45036;-61
2021/04/02 05:47:41;;;;;;;;;;;;;;;;;;2114062;28;45696;-61
2021/04/02 05:48:46;;;;;;;;;;;;;;;;;;2114836;27;46970;-61
2021/04/02 05:49:48;;;;;;;;;;;;;;;;;;2114643;27;47190;-63
2021/04/02 05:50:54;;;;;;;;;;;;;;;;;;2114069;28;47018;-62
2021/04/02 05:51:55;;;;;;;;;;;;;;;;;;2106143;28;44743;-63
2021/04/02 05:52:58;;;;;;;;;;;;;;;;;;2114109;28;46583;-63
2021/04/02 05:53:59;;;;;;;;;;;;;;;;;;2113873;28;46105;-63
2021/04/02 05:55:01;;;;;;;;;;;;;;;;;;2114174;28;47000;-63
2021/04/02 05:56:03;;;;;;;;;;;;;;;;;;2113654;28;44710;-63
2021/04/02 05:57:04;;;;;;;;;;;;;;;;;;2114340;28;45818;-62
2021/04/02 05:58:06;;;;;;;;;;;;;;;;;;2114424;27;46450;-63
2021/04/02 05:59:07;;;;;;;;;;;;;;;;;;2114240;27;43733;-62
2021/04/02 06:00:09;;;;;;;;;;;;;;;;;;2113904;28;45018;-62
2021/04/02 06:01:10;;;;;;;;;;;;;;;;;;2105808;28;46128;-62
2021/04/02 06:02:12;;;;;;;;;;;;;;;;;;2113715;28;46881;-62
2021/04/02 06:03:14;;;;;;;;;;;;;;;;;;2114449;28;47039;-62
2021/04/02 06:04:16;;;;;;;;;;;;;;;;;;2114299;27;46915;-62
2021/04/02 06:05:17;;;;;;;;;;;;;;;;;;2114992;27;46934;-62
2021/04/02 06:06:18;;;;;;;;;;;;;;;;;;2113847;28;45875;-62
2021/04/02 06:07:19;;;;;;;;;;;;;;;;;;2114583;28;46914;-62
2021/04/02 06:08:20;;;;;;;;;;;;;;;;;;2114553;27;42264;-62
2021/04/02 06:09:21;;;;;;;;;;;;;;;;;;2114901;28;44847;-62
2021/04/02 06:10:23;;;;;;;;;;;;;;;;;;2115068;27;44224;-62
2021/04/02 06:11:24;;;;;;;;;;;;;;;;;;2115015;27;45386;-62
2021/04/02 06:12:25;;;;;;;;;;;;;;;;;;2115076;27;42453;-62
2021/04/02 06:13:27;;;;;;;;;;;;;;;;;;2115201;27;44282;-62
2021/04/02 06:14:27;;;;;;;;;;;;;;;;;;2115373;27;43866;-62
2021/04/02 06:15:31;;;;;;;;;;;;;;;;;;2116004;28;45429;-62
2021/04/02 06:16:32;;;;;;;;;;;;;;;;;;2107485;28;44349;-62
2021/04/02 06:17:52;;;;;;;;;;;;;;;;;;2115688;28;45234;-62
2021/04/02 06:18:55;;;;;;;;;;;;;;;;;;2115734;28;44165;-62
2021/04/02 06:20:05;;;;;;;;;;;;;;;;;;2115945;27;45261;-62
2021/04/02 06:21:06;;;;;;;;;;;;;;;;;;2115688;27;44333;-62
2021/04/02 06:22:07;;;;;;;;;;;;;;;;;;2115485;27;41614;-62
2021/04/02 06:23:13;;;;;;;;;;;;;;;;;;2115965;28;42817;-61
2021/04/02 06:24:14;;;;;;;;;;;;;;;;;;2108147;28;45553;-62
2021/04/02 06:25:18;;;;;;;;;;;;;;;;;;2115353;28;44128;-61
2021/04/02 06:26:19;;;;;;;;;;;;;;;;;;2115388;28;42770;-61
2021/04/02 06:27:28;;;;;;;;;;;;;;;;;;2115448;27;44673;-62
2021/04/02 06:28:30;;;;;;;;;;;;;;;;;;2114610;28;44062;-63
2021/04/02 06:29:35;;;;;;;;;;;;;;;;;;2115210;28;44447;-62
2021/04/02 06:30:38;;;;;;;;;;;;;;;;;;2116432;27;43964;-62
2021/04/02 06:31:42;;;;;;;;;;;;;;;;;;2116267;28;42737;-61
2021/04/02 06:32:44;;;;;;;;;;;;;;;;;;2116948;28;43485;-62
2021/04/02 06:33:45;;;;;;;;;;;;;;;;;;2116082;28;46423;-62
2021/04/02 06:34:49;;;;;;;;;;;;;;;;;;2109014;28;44433;-62
2021/04/02 06:35:50;;;;;;;;;;;;;;;;;;2116621;28;45264;-62
2021/04/02 06:36:51;;;;;;;;;;;;;;;;;;2116668;27;45427;-61
2021/04/02 06:37:56;;;;;;;;;;;;;;;;;;2117002;27;46577;-63
2021/04/02 06:38:58;;;;;;;;;;;;;;;;;;2117112;28;45670;-62
2021/04/02 06:40:00;;;;;;;;;;;;;;;;;;2118200;27;45409;-62
2021/04/02 06:41:02;;;;;;;;;;;;;;;;;;2117101;28;45392;-62
2021/04/02 06:42:07;;;;;;;;;;;;;;;;;;2117053;28;45272;-62
2021/04/02 06:43:07;;;;;;;;;;;;;;;;;;2117496;27;45230;-62
2021/04/02 06:44:11;;;;;;;;;;;;;;;;;;2117630;27;45544;-62
2021/04/02 06:45:13;;;;;;;;;;;;;;;;;;2116079;27;45381;-61
2021/04/02 06:46:14;;;;;;;;;;;;;;;;;;2115186;28;45507;-62
2021/04/02 06:47:15;;;;;;;;;;;;;;;;;;2107012;28;45556;-61
2021/04/02 06:48:19;;;;;;;;;;;;;;;;;;2115556;28;45254;-61
2021/04/02 06:49:20;;;;;;;;;;;;;;;;;;2115594;27;42665;-61
2021/04/02 06:50:21;;;;;;;;;;;;;;;;;;2108114;28;44206;-61
2021/04/02 06:51:23;;;;;;;;;;;;;;;;;;2107885;28;42972;-61
2021/04/02 06:52:24;;;;;;;;;;;;;;;;;;2116264;27;44150;-61
2021/04/02 06:53:25;;;;;;;;;;;;;;;;;;2115611;27;43836;-61
2021/04/02 06:54:27;;;;;;;;;;;;;;;;;;2107245;28;42953;-61
2021/04/02 06:55:29;;;;;;;;;;;;;;;;;;2107183;28;46136;-61
2021/04/02 06:56:35;;;;;;;;;;;;;;;;;;2115466;28;45678;-62
2021/04/02 06:57:36;;;;;;;;;;;;;;;;;;2107918;28;47131;-61
2021/04/02 06:58:38;;;;;;;;;;;;;;;;;;2115204;28;46907;-61
2021/04/02 06:59:41;;;;;;;;;;;;;;;;;;2107050;27;45692;-61
2021/04/02 07:00:43;;;;;;;;;;;;;;;;;;2107253;28;46945;-61
2021/04/02 07:01:44;;;;;;;;;;;;;;;;;;2106823;28;46934;-61
2021/04/02 07:02:46;;;;;;;;;;;;;;;;;;2115356;28;46511;-61
2021/04/02 07:03:47;;;;;;;;;;;;;;;;;;2115094;28;47026;-61
2021/04/02 07:04:51;;;;;;;;;;;;;;;;;;2115117;28;44653;-61
2021/04/02 07:05:53;;;;;;;;;;;;;;;;;;2115359;28;43271;-61
2021/04/02 07:06:54;;;;;;;;;;;;;;;;;;2106761;28;47075;-67
2021/04/02 07:08:07;;;;;;;;;;;;;;;;;;2115130;27;47905;-61
2021/04/02 07:09:09;;;;;;;;;;;;;;;;;;2115244;28;46913;-61